createdAt,value
2018-12-22T00:02:21.615Z,131.15
2018-12-22T00:04:50.878Z,131.75
2018-12-22T00:07:19.966Z,129.00
2018-12-22T00:09:48.909Z,134.65
2018-12-22T00:12:18.179Z,121.67
2018-12-22T00:14:47.441Z,136.92
2018-12-22T00:17:16.515Z,129.12
2018-12-22T00:19:45.623Z,129.65
2018-12-22T00:22:14.600Z,135.28
2018-12-22T00:24:43.694Z,122.78
2018-12-22T00:27:12.917Z,132.27
2018-12-22T00:29:42.011Z,127.70
2018-12-22T00:32:11.228Z,121.92
2018-12-22T00:34:40.300Z,119.65
2018-12-22T00:37:09.616Z,118.97
2018-12-22T00:39:38.676Z,120.85
2018-12-22T00:42:07.938Z,122.53
2018-12-22T00:44:37.104Z,121.37
2018-12-22T00:47:06.341Z,123.55
2018-12-22T00:49:35.373Z,122.25
2018-12-22T00:52:04.709Z,122.90
2018-12-22T00:54:33.696Z,119.02
2018-12-22T00:57:02.899Z,121.85
2018-12-22T00:59:32.098Z,122.58
2018-12-22T01:02:01.304Z,118.65
2018-12-22T01:04:30.501Z,118.60
2018-12-22T01:06:59.815Z,119.13
2018-12-22T01:09:29.071Z,115.30
2018-12-22T01:11:58.207Z,114.72
2018-12-22T01:14:27.499Z,112.08
2018-12-22T01:16:56.703Z,115.90
2018-12-22T01:19:25.900Z,116.40
2018-12-22T01:21:54.995Z,115.10
2018-12-22T01:24:24.283Z,116.60
2018-12-22T01:26:53.496Z,115.88
2018-12-22T01:29:22.587Z,113.62
2018-12-22T01:31:51.687Z,119.90
2018-12-22T01:34:21.007Z,115.32
2018-12-22T01:36:50.085Z,112.08
2018-12-22T01:39:19.203Z,115.50
2018-12-22T01:41:48.616Z,110.17
2018-12-22T01:44:17.583Z,110.88
2018-12-22T01:46:46.919Z,115.55
2018-12-22T01:49:15.976Z,113.60
2018-12-22T01:51:45.168Z,111.28
2018-12-22T01:54:14.619Z,116.55
2018-12-22T01:56:43.917Z,107.92
2018-12-22T01:59:13.003Z,110.28
2018-12-22T02:01:42.110Z,111.42
2018-12-22T02:04:11.236Z,108.03
2018-12-22T02:06:40.488Z,108.97
2018-12-22T02:09:09.639Z,103.92
2018-12-22T02:11:38.879Z,109.45
2018-12-22T02:14:08.302Z,102.07
2018-12-22T02:16:37.465Z,103.85
2018-12-22T02:19:06.532Z,101.80
2018-12-22T02:21:35.672Z,112.40
2018-12-22T02:24:04.624Z,106.92
2018-12-22T02:26:33.728Z,108.52
2018-12-22T02:29:02.828Z,103.45
2018-12-22T02:31:31.951Z,100.72
2018-12-22T02:34:01.372Z,103.22
2018-12-22T02:36:30.369Z,103.45
2018-12-22T02:38:59.342Z,104.85
2018-12-22T02:41:28.596Z,104.38
2018-12-22T02:43:57.845Z,107.60
2018-12-22T02:46:26.904Z,109.17
2018-12-22T02:48:56.128Z,105.78
2018-12-22T02:51:25.347Z,103.83
2018-12-22T02:53:54.424Z,100.20
2018-12-22T02:56:23.554Z,98.15
2018-12-22T02:58:52.588Z,96.72
2018-12-22T03:01:21.832Z,101.87
2018-12-22T03:03:51.054Z,102.53
2018-12-22T03:06:20.119Z,103.62
2018-12-22T03:08:49.113Z,103.62
2018-12-22T03:11:18.224Z,93.03
2018-12-22T03:13:47.295Z,99.15
2018-12-22T03:16:16.503Z,106.85
2018-12-22T03:18:45.808Z,100.00
2018-12-22T03:21:15.116Z,103.12
2018-12-22T03:23:44.334Z,92.78
2018-12-22T03:26:13.540Z,88.80
2018-12-22T03:28:43.089Z,99.52
2018-12-22T03:31:12.338Z,94.85
2018-12-22T03:33:41.298Z,91.92
2018-12-22T03:36:10.509Z,85.92
2018-12-22T03:38:39.492Z,106.75
2018-12-22T03:41:08.918Z,96.70
2018-12-22T03:43:38.003Z,88.95
2018-12-22T03:46:07.096Z,89.52
2018-12-22T03:48:36.320Z,92.42
2018-12-22T03:51:05.731Z,100.58
2018-12-22T03:53:34.860Z,96.15
2018-12-22T03:56:04.089Z,91.90
2018-12-22T03:58:33.293Z,93.33
2018-12-22T04:01:02.592Z,89.03
2018-12-22T04:03:31.820Z,90.85
2018-12-22T04:06:00.985Z,88.20
2018-12-22T04:08:29.963Z,91.28
2018-12-22T04:10:59.109Z,91.32
2018-12-22T04:13:28.271Z,87.70
2018-12-22T04:15:57.245Z,87.75
2018-12-22T04:18:26.444Z,88.95
2018-12-22T04:20:55.531Z,88.85
2018-12-22T04:23:24.664Z,82.80
2018-12-22T04:25:53.985Z,91.37
2018-12-22T04:28:23.367Z,84.05
2018-12-22T04:30:52.472Z,88.92
2018-12-22T04:33:21.791Z,87.67
2018-12-22T04:35:50.962Z,84.80
2018-12-22T04:38:20.059Z,79.75
2018-12-22T04:40:49.236Z,80.87
2018-12-22T04:43:18.468Z,83.45
2018-12-22T04:45:47.524Z,90.97
2018-12-22T04:48:16.855Z,82.72
2018-12-22T04:50:46.167Z,82.75
2018-12-22T04:53:15.356Z,77.87
2018-12-22T04:55:44.449Z,81.60
2018-12-22T04:58:13.595Z,81.70
2018-12-22T05:00:42.851Z,82.20
2018-12-22T05:03:11.938Z,79.92
2018-12-22T05:05:40.934Z,85.07
2018-12-22T05:08:10.239Z,79.45
2018-12-22T05:10:39.305Z,82.08
2018-12-22T05:13:08.413Z,81.97
2018-12-22T05:15:37.762Z,76.57
2018-12-22T05:18:06.835Z,79.03
2018-12-22T05:20:36.030Z,73.45
2018-12-22T05:23:05.259Z,84.15
2018-12-22T05:25:34.292Z,76.97
2018-12-22T05:28:03.532Z,83.12
2018-12-22T05:30:32.538Z,76.65
2018-12-22T05:33:01.936Z,79.82
2018-12-22T05:35:32.052Z,78.60
2018-12-22T05:38:01.364Z,78.40
2018-12-22T05:40:30.642Z,75.08
2018-12-22T05:42:59.530Z,78.95
2018-12-22T05:45:28.863Z,76.25
2018-12-22T05:47:57.941Z,77.97
2018-12-22T05:50:27.241Z,76.62
2018-12-22T05:52:56.465Z,81.63
2018-12-22T05:55:25.932Z,74.37
2018-12-22T05:57:54.939Z,73.28
2018-12-22T06:00:23.935Z,71.77
2018-12-22T06:02:53.042Z,75.47
2018-12-22T06:05:22.654Z,76.22
2018-12-22T06:07:51.947Z,73.67
2018-12-22T06:10:21.139Z,77.25
2018-12-22T06:12:50.448Z,76.75
2018-12-22T06:15:19.627Z,75.05
2018-12-22T06:17:48.893Z,72.32
2018-12-22T06:20:18.252Z,73.62
2018-12-22T06:22:47.548Z,80.20
2018-12-22T06:25:16.886Z,75.87
2018-12-22T06:27:46.049Z,78.55
2018-12-22T06:30:15.241Z,76.55
2018-12-22T06:32:44.573Z,76.70
2018-12-22T06:35:13.739Z,83.50
2018-12-22T06:37:42.959Z,81.78
2018-12-22T06:40:12.145Z,77.62
2018-12-22T06:42:41.133Z,76.07
2018-12-22T06:45:10.231Z,76.47
2018-12-22T06:47:39.564Z,81.45
2018-12-22T06:50:08.903Z,77.67
2018-12-22T06:52:38.032Z,77.67
2018-12-22T06:55:07.244Z,72.78
2018-12-22T06:57:36.359Z,71.80
2018-12-22T07:00:05.940Z,75.28
2018-12-22T07:02:35.047Z,79.82
2018-12-22T07:05:04.209Z,80.12
2018-12-22T07:07:33.549Z,82.78
2018-12-22T07:10:03.029Z,75.92
2018-12-22T07:12:32.354Z,75.92
2018-12-22T07:15:01.764Z,76.22
2018-12-22T07:17:30.975Z,73.17
2018-12-22T07:20:00.337Z,77.05
2018-12-22T07:22:29.460Z,73.07
2018-12-22T07:24:58.368Z,81.55
2018-12-22T07:27:27.436Z,83.17
2018-12-22T07:29:56.492Z,80.77
2018-12-22T07:32:25.552Z,79.40
2018-12-22T07:34:54.783Z,76.35
2018-12-22T07:37:24.124Z,78.55
2018-12-22T07:39:54.086Z,73.80
2018-12-22T07:42:23.469Z,75.00
2018-12-22T07:44:52.866Z,79.72
2018-12-22T07:47:22.163Z,87.22
2018-12-22T07:49:51.134Z,80.95
2018-12-22T07:52:20.232Z,77.50
2018-12-22T07:54:49.493Z,77.17
2018-12-22T07:57:18.676Z,76.60
2018-12-22T07:59:48.024Z,74.50
2018-12-22T08:02:17.250Z,68.50
2018-12-22T08:04:46.488Z,82.22
2018-12-22T08:07:15.624Z,75.15
2018-12-22T08:09:44.799Z,73.70
2018-12-22T08:12:13.865Z,81.65
2018-12-22T08:14:42.959Z,69.82
2018-12-22T08:17:11.852Z,73.60
2018-12-22T08:19:41.190Z,83.95
2018-12-22T08:22:10.280Z,73.70
2018-12-22T08:24:39.395Z,72.60
2018-12-22T08:27:08.486Z,75.03
2018-12-22T08:29:37.482Z,78.25
2018-12-22T08:32:06.794Z,78.28
2018-12-22T08:34:35.746Z,75.65
2018-12-22T08:37:04.970Z,83.60
2018-12-22T08:39:34.420Z,73.60
2018-12-22T08:42:03.431Z,70.47
2018-12-22T08:44:32.712Z,74.80
2018-12-22T08:47:02.003Z,71.20
2018-12-22T08:49:31.111Z,68.35
2018-12-22T08:52:00.465Z,68.33
2018-12-22T08:54:29.441Z,77.17
2018-12-22T08:56:58.648Z,66.72
2018-12-22T08:59:27.861Z,72.32
2018-12-22T09:01:56.924Z,70.95
2018-12-22T09:04:26.191Z,70.05
2018-12-22T09:06:55.443Z,71.57
2018-12-22T09:09:24.801Z,68.97
2018-12-22T09:11:53.929Z,71.22
2018-12-22T09:14:23.031Z,72.08
2018-12-22T09:16:52.252Z,70.85
2018-12-22T09:19:21.323Z,71.72
2018-12-22T09:21:50.457Z,70.57
2018-12-22T09:24:19.739Z,66.85
2018-12-22T09:26:48.963Z,68.45
2018-12-22T09:29:18.069Z,72.45
2018-12-22T09:31:47.328Z,70.05
2018-12-22T09:34:16.217Z,67.90
2018-12-22T09:36:45.111Z,72.35
2018-12-22T09:39:14.340Z,69.58
2018-12-22T09:41:43.554Z,67.27
2018-12-22T09:44:12.619Z,70.15
2018-12-22T09:46:41.722Z,66.90
2018-12-22T09:49:10.924Z,69.27
2018-12-22T09:51:39.914Z,69.00
2018-12-22T09:54:09.115Z,75.20
2018-12-22T09:56:38.213Z,108.03
2018-12-22T09:59:07.511Z,121.80
2018-12-22T10:01:36.823Z,111.83
2018-12-22T10:04:05.896Z,110.83
2018-12-22T10:06:35.088Z,111.55
2018-12-22T10:09:04.559Z,71.62
2018-12-22T10:11:33.940Z,73.97
2018-12-22T10:14:03.290Z,133.45
2018-12-22T10:16:32.667Z,104.20
2018-12-22T10:19:02.010Z,101.10
2018-12-22T10:21:31.355Z,93.05
2018-12-22T10:24:00.476Z,122.00
2018-12-22T10:26:29.595Z,106.40
2018-12-22T10:28:59.070Z,96.45
2018-12-22T10:31:28.299Z,114.28
2018-12-22T10:33:57.674Z,86.57
2018-12-22T10:36:27.079Z,118.15
2018-12-22T10:38:56.313Z,106.63
2018-12-22T10:41:25.599Z,105.17
2018-12-22T10:43:54.907Z,100.72
2018-12-22T10:46:23.890Z,156.28
2018-12-22T10:48:52.883Z,142.40
2018-12-22T10:51:24.339Z,123.97
2018-12-22T10:53:53.893Z,98.35
2018-12-22T10:56:23.185Z,153.57
2018-12-22T10:58:52.372Z,149.97
2018-12-22T11:01:26.510Z,119.57
2018-12-22T11:03:53.243Z,122.90
2018-12-22T11:06:22.616Z,120.13
2018-12-22T11:08:51.913Z,115.62
2018-12-22T11:11:21.228Z,142.13
2018-12-22T11:13:50.600Z,147.40
2018-12-22T11:16:20.180Z,127.95
2018-12-22T11:18:49.436Z,143.15
2018-12-22T11:21:18.724Z,142.32
2018-12-22T11:23:47.550Z,129.70
2018-12-22T11:26:16.806Z,122.62
2018-12-22T11:28:45.852Z,135.30
2018-12-22T11:31:15.187Z,148.10
2018-12-22T11:33:44.583Z,141.73
2018-12-22T11:36:13.685Z,149.05
2018-12-22T11:38:42.903Z,151.12
2018-12-22T11:41:12.199Z,194.02
2018-12-22T11:43:41.432Z,204.13
2018-12-22T11:46:10.808Z,160.52
2018-12-22T11:49:43.823Z,168.00
2018-12-22T11:52:13.205Z,163.28
2018-12-22T11:54:42.540Z,187.43
2018-12-22T11:57:11.797Z,176.68
2018-12-22T11:59:41.104Z,156.28
2018-12-22T12:02:10.302Z,183.80
2018-12-22T12:04:39.701Z,177.95
2018-12-22T12:07:09.224Z,191.65
2018-12-22T12:09:38.613Z,178.72
2018-12-22T12:12:07.739Z,161.43
2018-12-22T12:14:37.216Z,222.02
2018-12-22T12:19:19.316Z,191.18
2018-12-22T12:21:48.592Z,163.57
2018-12-22T12:24:18.095Z,174.53
2018-12-22T12:26:47.255Z,165.07
2018-12-22T12:29:16.376Z,166.25
2018-12-22T12:31:52.028Z,192.57
2018-12-22T12:34:17.474Z,189.18
2018-12-22T12:36:46.491Z,191.43
2018-12-22T12:39:16.703Z,190.75
2018-12-22T12:41:46.215Z,221.62
2018-12-22T12:44:15.443Z,217.70
2018-12-22T12:46:50.607Z,211.20
2018-12-22T12:49:20.557Z,242.43
2018-12-22T12:51:49.803Z,246.30
2018-12-22T12:54:19.436Z,275.02
2018-12-22T12:56:53.654Z,269.60
2018-12-22T12:59:23.203Z,279.48
2018-12-22T13:02:00.813Z,275.18
2018-12-22T13:04:23.272Z,279.70
2018-12-22T13:06:52.453Z,283.55
2018-12-22T13:09:21.475Z,296.00
2018-12-22T13:11:52.040Z,281.63
2018-12-22T13:14:25.554Z,293.80
2018-12-22T13:16:54.804Z,295.45
2018-12-22T13:19:23.873Z,280.23
2018-12-22T13:21:54.523Z,303.15
2018-12-22T13:24:23.592Z,313.98
2018-12-22T13:26:52.711Z,311.75
2018-12-22T13:29:21.949Z,322.20
2018-12-22T13:31:50.915Z,323.45
2018-12-22T13:34:20.015Z,323.95
2018-12-22T13:36:49.260Z,254.43
2018-12-22T13:39:22.595Z,258.23
2018-12-22T13:41:51.610Z,261.40
2018-12-22T13:44:20.640Z,253.37
2018-12-22T13:46:49.784Z,258.90
2018-12-22T13:49:19.115Z,247.33
2018-12-22T13:51:48.602Z,225.55
2018-12-22T13:54:22.739Z,242.25
2018-12-22T13:56:51.668Z,243.12
2018-12-22T13:59:20.931Z,235.25
2018-12-22T14:01:55.568Z,233.23
2018-12-22T14:04:24.836Z,238.15
2018-12-22T14:06:53.927Z,228.73
2018-12-22T14:09:22.895Z,235.60
2018-12-22T14:11:52.060Z,234.45
2018-12-22T14:14:25.021Z,232.57
2018-12-22T14:16:59.014Z,217.57
2018-12-22T14:19:28.315Z,232.98
2018-12-22T14:21:57.551Z,233.02
2018-12-22T14:24:43.072Z,220.80
2018-12-22T14:27:12.661Z,215.20
2018-12-22T14:29:42.283Z,219.95
2018-12-22T14:32:11.597Z,215.43
2018-12-22T14:34:47.439Z,218.67
2018-12-22T14:37:16.110Z,220.40
2018-12-22T14:39:45.359Z,214.75
2018-12-22T14:42:14.456Z,206.38
2018-12-22T14:44:43.500Z,203.32
2018-12-22T14:47:12.862Z,214.45
2018-12-22T14:49:41.956Z,201.30
2018-12-22T14:52:11.295Z,210.68
2018-12-22T14:54:40.296Z,212.95
2018-12-22T14:57:09.469Z,197.10
2018-12-22T14:59:39.139Z,194.00
2018-12-22T15:02:08.251Z,197.80
2018-12-22T15:04:37.460Z,194.28
2018-12-22T15:07:07.776Z,193.85
2018-12-22T15:09:36.843Z,195.85
2018-12-22T15:12:06.044Z,193.68
2018-12-22T15:14:35.575Z,187.18
2018-12-22T15:17:04.777Z,192.50
2018-12-22T15:19:36.627Z,189.30
2018-12-22T15:22:06.662Z,155.93
2018-12-22T15:24:35.857Z,183.87
2018-12-22T15:27:04.957Z,178.97
2018-12-22T15:29:33.972Z,179.20
2018-12-22T15:32:03.331Z,179.23
2018-12-22T15:34:32.536Z,184.75
2018-12-22T15:37:01.645Z,189.72
2018-12-22T15:39:30.708Z,180.90
2018-12-22T15:41:59.803Z,168.62
2018-12-22T15:44:29.020Z,176.25
2018-12-22T15:46:58.127Z,170.12
2018-12-22T15:49:27.963Z,177.00
2018-12-22T15:51:57.031Z,171.57
2018-12-22T15:54:25.903Z,170.40
2018-12-22T15:56:55.035Z,178.78
2018-12-22T15:59:24.208Z,173.47
2018-12-22T16:01:53.352Z,166.03
2018-12-22T16:04:22.693Z,160.57
2018-12-22T16:06:51.954Z,171.45
2018-12-22T16:09:21.161Z,156.97
2018-12-22T16:11:50.432Z,164.37
2018-12-22T16:14:19.643Z,159.87
2018-12-22T16:16:48.821Z,156.20
2018-12-22T16:19:18.166Z,171.45
2018-12-22T16:21:47.321Z,164.28
2018-12-22T16:24:16.765Z,161.95
2018-12-22T16:26:45.828Z,161.95
2018-12-22T16:29:36.329Z,157.40
2018-12-22T16:32:05.519Z,148.97
2018-12-22T16:34:34.561Z,152.10
2018-12-22T16:37:03.676Z,159.52
2018-12-22T16:39:32.940Z,154.12
2018-12-22T16:42:02.104Z,154.38
2018-12-22T16:44:31.408Z,155.55
2018-12-22T16:47:00.543Z,148.38
2018-12-22T16:49:29.657Z,147.20
2018-12-22T16:51:58.913Z,146.68
2018-12-22T16:54:27.969Z,143.82
2018-12-22T16:56:56.964Z,142.03
2018-12-22T16:59:27.665Z,148.15
2018-12-22T17:02:48.655Z,154.70
2018-12-22T17:05:17.796Z,139.50
2018-12-22T17:07:47.128Z,145.70
2018-12-22T17:10:16.250Z,142.53
2018-12-22T17:12:45.267Z,140.20
2018-12-22T17:15:21.933Z,141.88
2018-12-22T17:17:45.915Z,134.93
2018-12-22T17:20:15.233Z,136.22
2018-12-22T17:22:55.211Z,139.70
2018-12-22T17:25:29.671Z,137.10
2018-12-22T17:27:58.649Z,134.75
2018-12-22T17:30:27.764Z,137.43
2018-12-22T17:32:56.849Z,139.20
2018-12-22T17:35:26.051Z,135.43
2018-12-22T17:37:55.136Z,130.05
2018-12-22T17:40:24.491Z,134.07
2018-12-22T17:42:53.472Z,131.30
2018-12-22T17:45:22.671Z,136.65
2018-12-22T17:47:51.964Z,129.80
2018-12-22T17:50:21.241Z,136.62
2018-12-22T17:52:50.539Z,131.35
2018-12-22T17:55:19.752Z,126.65
2018-12-22T17:57:49.048Z,133.12
2018-12-22T18:00:20.329Z,128.35
2018-12-22T18:02:49.503Z,128.97
2018-12-22T18:05:18.709Z,130.12
2018-12-22T18:07:47.965Z,125.18
2018-12-22T18:10:17.040Z,128.10
2018-12-22T18:12:46.092Z,133.37
2018-12-22T18:15:18.376Z,132.25
2018-12-22T18:17:47.491Z,126.15
2018-12-22T18:20:16.754Z,132.95
2018-12-22T18:22:45.774Z,134.82
2018-12-22T18:25:16.131Z,131.10
2018-12-22T18:27:45.089Z,135.12
2018-12-22T18:30:14.425Z,129.63
2018-12-22T18:32:43.903Z,131.37
2018-12-22T18:35:12.855Z,127.95
2018-12-22T18:37:41.734Z,125.75
2018-12-22T18:40:13.603Z,137.18
2018-12-22T18:42:42.720Z,129.68
2018-12-22T18:45:12.535Z,128.05
2018-12-22T18:47:42.208Z,130.70
2018-12-22T18:50:18.557Z,126.30
2018-12-22T18:52:47.996Z,129.00
2018-12-22T18:55:17.025Z,123.05
2018-12-22T18:57:47.853Z,125.15
2018-12-22T19:00:19.903Z,123.22
2018-12-22T19:02:49.107Z,119.22
2018-12-22T19:05:18.748Z,125.18
2018-12-22T19:07:48.032Z,120.10
2018-12-22T19:10:28.683Z,118.80
2018-12-22T19:12:57.883Z,119.47
2018-12-22T19:15:26.888Z,115.37
2018-12-22T19:17:56.022Z,119.17
2018-12-22T19:20:29.579Z,121.55
2018-12-22T19:22:58.582Z,125.42
2018-12-22T19:25:28.029Z,114.65
2018-12-22T19:27:56.972Z,111.37
2018-12-22T19:30:26.228Z,117.82
2018-12-22T19:32:55.400Z,114.12
2018-12-22T19:35:24.821Z,117.08
2018-12-22T19:37:54.041Z,114.60
2018-12-22T19:40:23.164Z,114.22
2018-12-22T19:42:52.516Z,108.92
2018-12-22T19:45:21.555Z,118.97
2018-12-22T19:47:50.991Z,118.05
2018-12-22T19:50:20.210Z,117.93
2018-12-22T19:52:50.107Z,114.03
2018-12-22T19:55:19.144Z,115.17
2018-12-22T19:57:48.541Z,116.77
2018-12-22T20:00:18.062Z,117.05
2018-12-22T20:02:47.237Z,111.83
2018-12-22T20:05:16.541Z,112.80
2018-12-22T20:07:45.941Z,118.53
2018-12-22T20:10:15.258Z,126.38
2018-12-22T20:12:44.544Z,118.00
2018-12-22T20:15:13.842Z,112.47
2018-12-22T20:17:42.972Z,115.60
2018-12-22T20:20:12.200Z,112.22
2018-12-22T20:22:41.547Z,115.28
2018-12-22T20:25:10.829Z,105.22
2018-12-22T20:27:39.848Z,109.32
2018-12-22T20:30:09.333Z,113.22
2018-12-22T20:32:38.544Z,121.42
2018-12-22T20:35:07.759Z,107.70
2018-12-22T20:37:36.799Z,108.25
2018-12-22T20:40:06.873Z,105.17
2018-12-22T20:42:36.081Z,112.40
2018-12-22T20:45:05.248Z,108.12
2018-12-22T20:47:34.535Z,114.52
2018-12-22T20:50:03.818Z,104.83
2018-12-22T20:52:32.987Z,116.00
2018-12-22T20:55:02.136Z,111.57
2018-12-22T20:57:31.588Z,105.75
2018-12-22T21:00:00.855Z,106.20
2018-12-22T21:02:29.819Z,106.12
2018-12-22T21:04:58.972Z,110.03
2018-12-22T21:07:28.243Z,109.97
2018-12-22T21:09:57.551Z,108.90
2018-12-22T21:12:26.637Z,105.05
2018-12-22T21:14:55.872Z,107.50
2018-12-22T21:17:24.833Z,110.10
2018-12-22T21:19:53.894Z,110.05
2018-12-22T21:22:23.158Z,108.65
2018-12-22T21:24:52.379Z,101.70
2018-12-22T21:27:21.559Z,104.20
2018-12-22T21:29:50.680Z,99.40
2018-12-22T21:32:19.956Z,103.53
2018-12-22T21:34:49.340Z,107.87
2018-12-22T21:37:18.428Z,111.37
2018-12-22T21:39:47.625Z,113.62
2018-12-22T21:42:16.926Z,109.25
2018-12-22T21:44:46.352Z,107.30
2018-12-22T21:47:15.968Z,113.60
2018-12-22T21:49:45.017Z,108.50
2018-12-22T21:52:14.431Z,111.95
2018-12-22T21:54:43.544Z,110.00
2018-12-22T21:57:12.653Z,111.52
2018-12-22T21:59:42.000Z,108.85
2018-12-22T22:02:11.187Z,107.22
2018-12-22T22:04:40.677Z,107.00
2018-12-22T22:07:09.843Z,109.05
2018-12-22T22:09:39.061Z,114.88
2018-12-22T22:12:08.461Z,112.37
2018-12-22T22:14:37.736Z,105.45
2018-12-22T22:17:07.043Z,107.52
2018-12-22T22:19:36.211Z,109.42
2018-12-22T22:22:05.361Z,112.05
2018-12-22T22:24:34.727Z,104.10
2018-12-22T22:27:03.834Z,105.40
2018-12-22T22:29:33.144Z,111.55
2018-12-22T22:32:02.219Z,112.57
2018-12-22T22:34:31.191Z,102.85
2018-12-22T22:37:00.320Z,105.10
2018-12-22T22:39:29.633Z,108.20
2018-12-22T22:41:58.951Z,108.78
2018-12-22T22:44:28.328Z,101.95
2018-12-22T22:46:57.523Z,108.78
2018-12-22T22:49:26.725Z,106.52
2018-12-22T22:51:55.720Z,107.40
2018-12-22T22:54:24.816Z,107.60
2018-12-22T22:56:53.856Z,112.83
2018-12-22T22:59:23.108Z,107.50
2018-12-22T23:01:52.316Z,103.50
2018-12-22T23:04:22.548Z,109.92
2018-12-22T23:06:51.813Z,106.95
2018-12-22T23:09:21.050Z,112.25
2018-12-22T23:11:49.995Z,100.20
2018-12-22T23:14:18.989Z,105.03
2018-12-22T23:16:48.216Z,105.75
2018-12-22T23:19:17.417Z,104.53
2018-12-22T23:21:46.729Z,103.62
2018-12-22T23:24:16.051Z,112.42
2018-12-22T23:26:45.432Z,101.72
2018-12-22T23:29:14.522Z,105.60
2018-12-22T23:31:43.618Z,107.85
2018-12-22T23:34:13.025Z,103.87
2018-12-22T23:36:42.451Z,104.00
2018-12-22T23:39:11.732Z,109.30
2018-12-22T23:41:40.904Z,103.80
2018-12-22T23:44:10.023Z,110.35
2018-12-22T23:46:39.083Z,104.38
2018-12-22T23:49:08.204Z,104.83
2018-12-22T23:51:37.092Z,101.07
2018-12-22T23:54:05.867Z,106.25
2018-12-22T23:56:35.089Z,98.75
2018-12-22T23:59:04.159Z,104.17
